aviador You're here:

ZBAA Decoded Metar

BEIJING in CHINA
Report Time2017-06-23 22:00:00
UTC Time2017-06-23 22:32:22
Flight Rules vfr VFR
Wind350° at 6 kt
W.Decomp.*RWY 36: 6.0 kt HW 0.4 kt LCW
RWY 01: 5.8 kt HW 1.5 kt LCW
W.Rank350° ranks 3
Current wind is below 350° avg. (6.7)
Visibility9999 m
Phenomena:N/A
Clouds:Broken 033 Hf
Expected CloudBase > 400 ft AGL from Temp-Dew spread
Ceiling3,300 ft
Temp19°C (ISA +4)
Dew Point18°C (94% RH)
QNH1005 hPa
Density Alt1,135 ft
Elevation98 ft
Report Wrong Elevation
Raw Report
METAR ZBAA 232200Z 35003MPS 9999 BKN033 19/18 Q1005 NOSIG=

Extra information for ZBAA:More info

Metar Taf Metar & Taf Last 4 Metars F.Rules Stats Wind Profile Meteogram Temp Stats Airport Information Weather charts Add Link Nearby VenuesMetar ALERT Operation Metar Decoded Social comments